createdAt,value
2019-03-20T00:00:26.868Z,97.30
2019-03-20T00:02:58.490Z,91.73
2019-03-20T00:05:31.513Z,96.77
2019-03-20T00:08:02.926Z,98.13
2019-03-20T00:10:34.769Z,90.87
2019-03-20T00:13:06.244Z,101.70
2019-03-20T00:15:37.767Z,101.80
2019-03-20T00:18:09.394Z,85.33
2019-03-20T00:20:43.833Z,78.40
2019-03-20T00:23:16.390Z,82.40
2019-03-20T00:25:49.608Z,91.53
2019-03-20T00:28:21.266Z,91.37
2019-03-20T00:30:53.144Z,88.13
2019-03-20T00:33:29.357Z,70.50
2019-03-20T00:36:01.130Z,75.93
2019-03-20T00:38:32.614Z,78.63
2019-03-20T00:41:04.172Z,71.67
2019-03-20T00:43:35.661Z,63.60
2019-03-20T00:46:07.131Z,69.73
2019-03-20T00:48:38.648Z,63.83
2019-03-20T00:51:10.130Z,77.23
2019-03-20T00:53:44.550Z,74.60
2019-03-20T00:56:18.486Z,82.90
2019-03-20T00:58:53.002Z,86.00
2019-03-20T01:01:25.457Z,69.07
2019-03-20T01:03:58.697Z,83.27
2019-03-20T01:06:30.217Z,87.10
2019-03-20T01:09:01.645Z,87.93
2019-03-20T01:11:34.687Z,82.77
2019-03-20T01:14:06.192Z,79.43
2019-03-20T01:16:37.759Z,75.73
2019-03-20T01:19:12.549Z,78.10
2019-03-20T01:21:46.459Z,76.97
2019-03-20T01:24:19.694Z,69.43
2019-03-20T01:26:52.675Z,78.70
2019-03-20T01:29:25.021Z,62.53
2019-03-20T01:31:56.445Z,79.40
2019-03-20T01:34:27.995Z,69.53
2019-03-20T01:36:59.381Z,66.13
2019-03-20T01:39:30.900Z,74.60
2019-03-20T01:42:02.365Z,62.97
2019-03-20T01:44:35.320Z,55.13
2019-03-20T01:47:06.974Z,62.90
2019-03-20T01:49:38.541Z,67.17
2019-03-20T01:52:10.211Z,58.90
2019-03-20T01:54:41.726Z,56.50
2019-03-20T01:57:13.246Z,54.10
2019-03-20T01:59:44.738Z,59.30
2019-03-20T02:02:16.204Z,71.13
2019-03-20T02:04:47.586Z,62.53
2019-03-20T02:07:21.088Z,65.20
2019-03-20T02:09:52.542Z,67.43
2019-03-20T02:12:23.939Z,65.73
2019-03-20T02:14:57.983Z,71.70
2019-03-20T02:17:28.693Z,65.97
2019-03-20T02:20:00.750Z,71.77
2019-03-20T02:22:32.477Z,79.90
2019-03-20T02:25:10.370Z,64.87
2019-03-20T02:27:41.851Z,53.00
2019-03-20T02:30:15.972Z,79.63
2019-03-20T02:32:50.504Z,64.93
2019-03-20T02:35:21.971Z,66.17
2019-03-20T02:37:53.497Z,68.13
2019-03-20T02:40:25.000Z,59.73
2019-03-20T02:42:56.360Z,55.03
2019-03-20T02:45:27.786Z,67.10
2019-03-20T02:48:04.891Z,57.47
2019-03-20T02:50:36.484Z,55.27
2019-03-20T02:53:07.909Z,60.37
2019-03-20T02:55:42.446Z,50.20
2019-03-20T02:58:13.926Z,44.90
2019-03-20T03:00:45.379Z,56.00
2019-03-20T03:03:16.821Z,49.03
2019-03-20T03:05:50.610Z,52.07
2019-03-20T03:08:23.815Z,46.90
2019-03-20T03:10:56.894Z,50.83
2019-03-20T03:13:28.727Z,47.40
2019-03-20T03:16:00.153Z,48.80
2019-03-20T03:18:33.934Z,51.90
2019-03-20T03:21:06.899Z,46.83
2019-03-20T03:23:41.374Z,50.90
2019-03-20T03:26:13.070Z,44.27
2019-03-20T03:28:44.554Z,49.20
2019-03-20T03:31:16.006Z,54.17
2019-03-20T03:33:47.441Z,49.37
2019-03-20T03:36:21.538Z,54.03
2019-03-20T03:38:51.983Z,54.87
2019-03-20T03:41:23.476Z,65.80
2019-03-20T03:43:54.899Z,60.23
2019-03-20T03:46:32.655Z,60.77
2019-03-20T03:49:04.119Z,59.87
2019-03-20T03:51:35.541Z,70.60
2019-03-20T03:54:06.961Z,68.87
2019-03-20T03:56:40.659Z,72.97
2019-03-20T03:59:12.090Z,66.23
2019-03-20T04:01:43.581Z,57.20
2019-03-20T04:04:15.003Z,49.00
2019-03-20T04:06:46.536Z,54.53
2019-03-20T04:09:18.013Z,44.90
2019-03-20T04:11:49.474Z,49.07
2019-03-20T04:14:20.876Z,47.80
2019-03-20T04:16:52.467Z,44.17
2019-03-20T04:19:29.024Z,41.50
2019-03-20T04:22:00.689Z,43.77
2019-03-20T04:24:32.177Z,53.07
2019-03-20T04:27:03.771Z,47.17
2019-03-20T04:29:35.299Z,56.37
2019-03-20T04:32:06.766Z,46.50
2019-03-20T04:34:38.179Z,39.93
2019-03-20T04:37:12.837Z,45.73
2019-03-20T04:39:45.352Z,37.23
2019-03-20T04:42:16.783Z,42.50
2019-03-20T04:44:49.212Z,47.00
2019-03-20T04:47:20.634Z,43.13
2019-03-20T04:49:52.166Z,46.20
2019-03-20T04:52:23.631Z,37.33
2019-03-20T04:54:55.163Z,36.87
2019-03-20T04:57:26.586Z,35.67
2019-03-20T04:59:58.052Z,36.90
2019-03-20T05:02:29.536Z,35.83
2019-03-20T05:05:00.961Z,28.67
2019-03-20T05:07:32.527Z,37.27
2019-03-20T05:10:04.066Z,42.13
2019-03-20T05:12:40.172Z,37.53
2019-03-20T05:15:13.306Z,46.07
2019-03-20T05:17:44.820Z,38.00
2019-03-20T05:20:16.277Z,40.87
2019-03-20T05:22:49.217Z,43.47
2019-03-20T05:25:20.664Z,46.70
2019-03-20T05:27:52.145Z,43.90
2019-03-20T05:30:23.628Z,33.60
2019-03-20T05:32:55.082Z,40.03
2019-03-20T05:35:26.493Z,37.07
2019-03-20T05:37:57.987Z,41.43
2019-03-20T05:40:29.395Z,43.60
2019-03-20T05:43:00.860Z,39.13
2019-03-20T05:45:32.453Z,53.57
2019-03-20T05:48:03.894Z,47.60
2019-03-20T05:50:35.786Z,48.53
2019-03-20T05:53:07.302Z,42.90
2019-03-20T05:55:41.578Z,54.17
2019-03-20T05:58:16.094Z,58.80
2019-03-20T06:00:50.261Z,50.67
2019-03-20T06:03:23.397Z,53.43
2019-03-20T06:05:54.949Z,55.70
2019-03-20T06:08:27.720Z,60.30
2019-03-20T06:10:59.137Z,54.47
2019-03-20T06:13:32.335Z,55.37
2019-03-20T06:16:03.759Z,55.10
2019-03-20T06:18:35.245Z,66.47
2019-03-20T06:21:09.462Z,50.20
2019-03-20T06:23:40.946Z,54.20
2019-03-20T06:26:12.447Z,55.73
2019-03-20T06:28:44.016Z,59.83
2019-03-20T06:31:15.578Z,56.37
2019-03-20T06:33:46.984Z,54.07
2019-03-20T06:36:18.462Z,60.17
2019-03-20T06:38:49.899Z,47.37
2019-03-20T06:41:21.326Z,59.77
2019-03-20T06:43:52.743Z,59.70
2019-03-20T06:46:26.054Z,60.23
2019-03-20T06:48:57.443Z,58.50
2019-03-20T06:51:28.953Z,55.67
2019-03-20T06:54:00.372Z,45.67
2019-03-20T06:56:31.870Z,58.17
2019-03-20T06:59:43.031Z,50.20
2019-03-20T07:02:14.287Z,44.67
2019-03-20T07:05:25.827Z,50.83
2019-03-20T07:07:57.124Z,44.17
2019-03-20T07:11:17.893Z,43.70
2019-03-20T07:13:50.660Z,42.90
2019-03-20T07:16:22.298Z,47.63
2019-03-20T07:18:53.727Z,43.93
2019-03-20T07:21:25.413Z,43.93
2019-03-20T07:23:57.047Z,37.30
2019-03-20T07:26:28.787Z,35.90
2019-03-20T07:29:00.327Z,40.77
2019-03-20T07:31:32.817Z,47.30
2019-03-20T07:34:04.464Z,43.00
2019-03-20T07:36:35.928Z,37.20
2019-03-20T07:39:09.441Z,37.03
2019-03-20T07:41:40.890Z,35.37
2019-03-20T07:44:12.339Z,39.23
2019-03-20T07:46:43.803Z,35.27
2019-03-20T07:49:15.272Z,36.37
2019-03-20T07:51:49.039Z,32.27
2019-03-20T07:54:20.473Z,28.40
2019-03-20T07:56:51.998Z,32.93
2019-03-20T07:59:24.162Z,31.63
2019-03-20T08:01:55.753Z,29.10
2019-03-20T08:04:27.233Z,25.30
2019-03-20T08:06:59.733Z,21.93
2019-03-20T08:09:31.285Z,24.23
2019-03-20T08:12:03.046Z,30.63
2019-03-20T08:14:34.576Z,22.70
2019-03-20T08:17:06.080Z,21.17
2019-03-20T08:19:37.615Z,31.07
2019-03-20T08:22:09.293Z,24.43
2019-03-20T08:24:40.708Z,24.83
2019-03-20T08:27:12.111Z,20.07
2019-03-20T08:29:43.790Z,19.43
2019-03-20T08:32:15.384Z,21.30
2019-03-20T08:34:49.331Z,17.40
2019-03-20T08:37:20.810Z,15.30
2019-03-20T08:39:52.297Z,25.03
2019-03-20T08:42:23.914Z,20.87
2019-03-20T08:44:55.597Z,17.73
2019-03-20T08:47:27.098Z,22.17
2019-03-20T08:49:58.517Z,24.03
2019-03-20T08:52:32.251Z,25.73
2019-03-20T08:55:03.709Z,21.47
2019-03-20T08:57:35.218Z,21.27
2019-03-20T09:00:10.143Z,14.40
2019-03-20T09:02:41.760Z,12.77
2019-03-20T09:05:13.556Z,25.03
2019-03-20T09:07:47.516Z,16.30
2019-03-20T09:10:19.551Z,19.10
2019-03-20T09:12:51.038Z,11.33
2019-03-20T09:15:22.593Z,12.93
2019-03-20T09:17:54.242Z,11.43
2019-03-20T09:20:26.090Z,8.53
2019-03-20T09:22:57.599Z,10.87
2019-03-20T09:25:29.054Z,12.40
2019-03-20T09:28:00.542Z,9.97
2019-03-20T09:30:33.662Z,9.30
2019-03-20T09:33:05.257Z,6.63
2019-03-20T09:35:37.071Z,10.37
2019-03-20T09:38:08.495Z,12.93
2019-03-20T09:40:39.956Z,8.67
2019-03-20T09:43:11.335Z,7.70
2019-03-20T09:45:47.180Z,10.10
2019-03-20T09:48:24.688Z,6.23
2019-03-20T09:50:56.118Z,6.43
2019-03-20T09:53:27.569Z,6.97
2019-03-20T09:55:59.020Z,6.70
2019-03-20T09:58:30.503Z,8.70
2019-03-20T10:01:02.031Z,5.27
2019-03-20T10:03:33.476Z,8.33
2019-03-20T10:06:05.029Z,5.80
2019-03-20T10:08:36.455Z,6.50
2019-03-20T10:11:07.917Z,7.97
2019-03-20T10:13:39.410Z,6.33
2019-03-20T10:16:11.963Z,6.60
2019-03-20T10:18:43.369Z,5.40
2019-03-20T10:21:14.815Z,4.47
2019-03-20T10:23:46.223Z,4.83
2019-03-20T10:26:20.949Z,7.73
2019-03-20T10:28:52.442Z,4.20
2019-03-20T10:31:23.928Z,6.87
2019-03-20T10:33:55.450Z,3.83
2019-03-20T10:36:28.773Z,2.97
2019-03-20T10:39:06.340Z,5.03
2019-03-20T10:41:33.364Z,2.70
2019-03-20T10:44:04.752Z,3.67
2019-03-20T10:46:37.785Z,3.77
2019-03-20T10:49:10.722Z,4.70
2019-03-20T10:51:44.703Z,3.17
2019-03-20T10:54:23.257Z,3.83
2019-03-20T10:56:54.631Z,5.30
2019-03-20T10:59:26.124Z,3.43
2019-03-20T11:01:57.559Z,4.73
2019-03-20T11:04:29.071Z,2.33
2019-03-20T11:07:00.505Z,2.80
2019-03-20T11:09:33.453Z,3.67
2019-03-20T11:12:04.945Z,4.40
2019-03-20T11:14:36.575Z,2.73
2019-03-20T11:17:08.150Z,3.07
2019-03-20T11:19:39.619Z,4.63
2019-03-20T11:22:18.564Z,4.67
2019-03-20T11:24:44.179Z,4.30
2019-03-20T11:27:15.887Z,3.20
2019-03-20T11:29:47.434Z,3.33
2019-03-20T11:32:18.890Z,6.80
2019-03-20T11:34:50.359Z,4.37
2019-03-20T11:37:22.855Z,6.43
2019-03-20T11:39:59.829Z,7.57
2019-03-20T11:42:31.224Z,5.43
2019-03-20T11:45:02.624Z,6.67
2019-03-20T11:47:34.558Z,5.57
2019-03-20T11:50:09.896Z,5.67
2019-03-20T11:52:41.411Z,9.83
2019-03-20T11:55:12.998Z,8.57
2019-03-20T11:57:49.504Z,6.20
2019-03-20T12:00:20.834Z,6.50
2019-03-20T12:02:52.334Z,3.80
2019-03-20T12:05:23.817Z,8.23
2019-03-20T12:07:55.263Z,5.67
2019-03-20T12:10:29.207Z,5.90
2019-03-20T12:12:59.863Z,4.33
2019-03-20T12:15:33.009Z,9.50
2019-03-20T12:18:04.694Z,5.57
2019-03-20T12:20:36.227Z,10.10
2019-03-20T12:23:07.858Z,8.70
2019-03-20T12:25:41.487Z,8.27
2019-03-20T12:28:15.411Z,6.10
2019-03-20T12:30:46.907Z,7.97
2019-03-20T12:33:18.367Z,7.40
2019-03-20T12:35:49.775Z,7.33
2019-03-20T12:38:21.312Z,8.23
2019-03-20T12:40:52.905Z,15.33
2019-03-20T12:43:24.388Z,6.17
2019-03-20T12:45:55.945Z,5.63
2019-03-20T12:48:34.333Z,5.67
2019-03-20T12:51:10.189Z,7.60
2019-03-20T12:53:41.896Z,6.40
2019-03-20T12:56:19.235Z,6.10
2019-03-20T12:58:49.895Z,7.77
2019-03-20T13:01:22.221Z,8.03
2019-03-20T13:03:53.737Z,4.60
2019-03-20T13:06:25.293Z,12.13
2019-03-20T13:08:56.773Z,13.67
2019-03-20T13:11:28.318Z,8.93
2019-03-20T13:14:00.027Z,6.00
2019-03-20T13:16:34.045Z,5.37
2019-03-20T13:19:05.858Z,5.47
2019-03-20T13:21:39.249Z,3.50
2019-03-20T13:24:10.833Z,4.23
2019-03-20T13:26:45.204Z,5.73
2019-03-20T13:29:16.737Z,6.03
2019-03-20T13:31:48.177Z,7.10
2019-03-20T13:34:27.065Z,5.17
2019-03-20T13:37:00.161Z,5.93
2019-03-20T13:39:33.127Z,4.47
2019-03-20T13:42:06.240Z,4.60
2019-03-20T13:44:37.687Z,5.73
2019-03-20T13:47:09.199Z,4.73
2019-03-20T13:49:42.221Z,3.77
2019-03-20T13:52:13.655Z,3.97
2019-03-20T13:54:45.164Z,6.90
2019-03-20T13:57:16.798Z,4.27
2019-03-20T13:59:48.225Z,4.20
2019-03-20T14:02:19.761Z,5.63
2019-03-20T14:04:51.241Z,4.63
2019-03-20T14:07:24.190Z,4.37
2019-03-20T14:09:55.683Z,6.07
2019-03-20T14:12:27.086Z,3.83
2019-03-20T14:15:02.063Z,5.60
2019-03-20T14:17:36.190Z,9.37
2019-03-20T14:20:09.988Z,7.83
2019-03-20T14:22:45.590Z,6.90
2019-03-20T14:25:23.194Z,6.40
2019-03-20T14:27:54.724Z,5.83
2019-03-20T14:30:26.783Z,8.40
2019-03-20T14:32:58.397Z,7.53
2019-03-20T14:35:30.038Z,5.67
2019-03-20T14:38:05.309Z,7.77
2019-03-20T14:40:37.011Z,4.83
2019-03-20T14:43:08.707Z,7.00
2019-03-20T14:45:40.113Z,5.90
2019-03-20T14:48:11.622Z,5.60
2019-03-20T14:50:43.041Z,9.43
2019-03-20T14:53:14.414Z,6.00
2019-03-20T14:55:45.980Z,6.27
2019-03-20T14:58:17.582Z,9.50
2019-03-20T15:00:49.036Z,7.47
2019-03-20T15:03:20.550Z,6.23
2019-03-20T15:05:51.978Z,8.83
2019-03-20T15:08:23.484Z,7.60
2019-03-20T15:10:55.992Z,7.73
2019-03-20T15:13:27.506Z,6.77
2019-03-20T15:16:05.786Z,10.23
2019-03-20T15:18:37.260Z,6.27
2019-03-20T15:21:08.928Z,6.37
2019-03-20T15:23:40.557Z,7.63
2019-03-20T15:26:14.998Z,6.67
2019-03-20T15:28:46.526Z,7.87
2019-03-20T15:31:17.982Z,7.40
2019-03-20T15:33:49.455Z,5.93
2019-03-20T15:36:22.221Z,9.60
2019-03-20T15:38:53.793Z,5.97
2019-03-20T15:41:25.126Z,7.50
2019-03-20T15:44:02.748Z,7.17
2019-03-20T15:46:33.466Z,4.10
2019-03-20T15:49:04.870Z,6.87
2019-03-20T15:51:36.305Z,4.30
2019-03-20T15:54:09.354Z,5.20
2019-03-20T15:56:41.919Z,4.37
2019-03-20T15:59:13.325Z,5.97
2019-03-20T16:01:45.082Z,7.07
2019-03-20T16:04:16.647Z,10.37
2019-03-20T16:06:48.083Z,9.30
2019-03-20T16:09:19.552Z,7.40
2019-03-20T16:11:50.996Z,6.87
2019-03-20T16:14:22.399Z,6.13
2019-03-20T16:16:56.690Z,10.70
2019-03-20T16:19:28.195Z,7.00
2019-03-20T16:21:59.644Z,8.53
2019-03-20T16:24:31.065Z,13.37
2019-03-20T16:27:02.567Z,19.60
2019-03-20T16:29:44.861Z,15.17
2019-03-20T16:32:17.906Z,17.07
2019-03-20T16:34:49.323Z,14.60
2019-03-20T16:37:21.261Z,12.00
2019-03-20T16:39:53.072Z,14.57
2019-03-20T16:42:24.685Z,15.83
2019-03-20T16:44:56.212Z,15.70
2019-03-20T16:47:27.974Z,11.93
2019-03-20T16:49:59.575Z,15.30
2019-03-20T16:52:31.451Z,11.70
2019-03-20T16:55:03.633Z,11.40
2019-03-20T16:57:35.203Z,9.43
2019-03-20T17:00:10.860Z,15.23
2019-03-20T17:02:45.380Z,14.37
2019-03-20T17:05:17.357Z,10.60
2019-03-20T17:07:49.125Z,14.97
2019-03-20T17:10:25.741Z,20.07
2019-03-20T17:13:02.094Z,15.50
2019-03-20T17:15:36.475Z,14.97
2019-03-20T17:18:08.390Z,21.17
2019-03-20T17:20:40.024Z,17.13
2019-03-20T17:23:11.552Z,18.53
2019-03-20T17:25:43.048Z,18.80
2019-03-20T17:28:14.638Z,16.07
2019-03-20T17:30:47.778Z,21.43
2019-03-20T17:33:19.271Z,17.73
2019-03-20T17:35:50.725Z,18.57
2019-03-20T17:38:22.388Z,21.67
2019-03-20T17:40:53.947Z,20.93
2019-03-20T17:43:25.498Z,20.67
2019-03-20T17:45:57.034Z,19.90
2019-03-20T17:48:28.584Z,27.10
2019-03-20T17:51:00.073Z,28.57
2019-03-20T17:53:31.514Z,29.40
2019-03-20T17:56:06.460Z,22.03
2019-03-20T17:58:37.990Z,26.50
2019-03-20T18:01:09.427Z,24.97
2019-03-20T18:03:40.892Z,29.27
2019-03-20T18:06:12.390Z,29.73
2019-03-20T18:08:46.375Z,33.27
2019-03-20T18:11:17.840Z,31.97
2019-03-20T18:13:54.356Z,24.13
2019-03-20T18:16:25.762Z,27.47
2019-03-20T18:18:57.281Z,32.20
2019-03-20T18:21:28.744Z,36.07
2019-03-20T18:24:00.279Z,34.30
2019-03-20T18:26:35.246Z,35.70
2019-03-20T18:29:06.926Z,36.80
2019-03-20T18:31:45.655Z,36.33
2019-03-20T18:34:11.463Z,31.77
2019-03-20T18:36:43.037Z,35.43
2019-03-20T18:39:14.525Z,33.20
2019-03-20T18:41:46.175Z,34.57
2019-03-20T18:44:19.472Z,34.03
2019-03-20T18:46:50.678Z,34.67
2019-03-20T18:49:22.570Z,30.33
2019-03-20T18:51:54.182Z,30.20
2019-03-20T18:54:25.586Z,29.77
2019-03-20T18:56:59.376Z,36.90
2019-03-20T18:59:30.872Z,34.27
2019-03-20T19:02:06.025Z,31.00
2019-03-20T19:04:37.554Z,35.20
2019-03-20T19:07:09.017Z,34.80
2019-03-20T19:09:40.526Z,37.57
2019-03-20T19:12:11.970Z,46.13
2019-03-20T19:14:43.427Z,46.63
2019-03-20T19:17:14.929Z,42.43
2019-03-20T19:19:46.360Z,44.47
2019-03-20T19:22:17.854Z,42.33
2019-03-20T19:24:50.814Z,49.03
2019-03-20T19:27:22.282Z,34.67
2019-03-20T19:29:53.717Z,40.87
2019-03-20T19:32:25.221Z,43.53
2019-03-20T19:34:56.750Z,38.60
2019-03-20T19:37:28.158Z,42.07
2019-03-20T19:39:59.632Z,42.57
2019-03-20T19:42:31.115Z,45.60
2019-03-20T19:45:02.547Z,43.30
2019-03-20T19:47:35.955Z,34.47
2019-03-20T19:50:09.072Z,36.53
2019-03-20T19:52:40.619Z,34.77
2019-03-20T19:55:12.875Z,37.50
2019-03-20T19:57:44.435Z,41.37
2019-03-20T20:00:17.547Z,28.67
2019-03-20T20:02:49.169Z,27.67
2019-03-20T20:05:20.891Z,25.17
2019-03-20T20:07:52.975Z,24.50
2019-03-20T20:10:24.603Z,24.33
2019-03-20T20:12:56.133Z,22.37
2019-03-20T20:15:27.687Z,18.80
2019-03-20T20:17:59.196Z,19.57
2019-03-20T20:20:30.675Z,21.50
2019-03-20T20:23:04.212Z,24.00
2019-03-20T20:25:36.826Z,30.90
2019-03-20T20:28:08.335Z,23.93
2019-03-20T20:30:39.855Z,31.27
2019-03-20T20:33:16.492Z,29.07
2019-03-20T20:35:48.015Z,23.43
2019-03-20T20:38:19.445Z,22.70
2019-03-20T20:40:50.910Z,23.40
2019-03-20T20:43:22.518Z,25.20
2019-03-20T20:45:57.057Z,24.17
2019-03-20T20:48:28.688Z,24.23
2019-03-20T20:51:00.248Z,27.33
2019-03-20T20:53:31.694Z,23.23
2019-03-20T20:56:03.321Z,25.60
2019-03-20T20:58:35.071Z,26.17
2019-03-20T21:01:09.416Z,24.10
2019-03-20T21:03:40.939Z,25.90
2019-03-20T21:06:13.519Z,28.23
2019-03-20T21:08:46.059Z,24.23
2019-03-20T21:11:17.573Z,25.57
2019-03-20T21:13:49.153Z,22.87
2019-03-20T21:16:21.099Z,21.27
2019-03-20T21:19:31.601Z,26.00
2019-03-20T21:22:45.187Z,26.97
2019-03-20T21:25:18.881Z,22.20
2019-03-20T21:28:27.562Z,21.13
2019-03-20T21:31:31.371Z,24.90
2019-03-20T21:34:56.094Z,21.57
2019-03-20T21:38:08.421Z,22.87
2019-03-20T21:41:35.795Z,24.90
2019-03-20T21:44:56.251Z,23.77
2019-03-20T21:47:36.027Z,31.13
2019-03-20T21:50:41.331Z,30.83
2019-03-20T21:53:16.023Z,26.43
2019-03-20T21:56:21.279Z,28.77
2019-03-20T21:59:26.422Z,31.67
2019-03-20T22:02:38.778Z,25.50
2019-03-20T22:05:23.130Z,26.03
2019-03-20T22:07:51.744Z,20.77
2019-03-20T22:11:22.343Z,22.10
2019-03-20T22:13:59.105Z,25.80
2019-03-20T22:17:22.650Z,20.30
2019-03-20T22:20:28.278Z,23.80
2019-03-20T22:23:45.764Z,21.47
2019-03-20T22:27:01.456Z,21.00
2019-03-20T22:29:33.457Z,26.60
2019-03-20T22:32:51.792Z,22.03
2019-03-20T22:36:15.366Z,18.67
2019-03-20T22:39:46.264Z,16.63
2019-03-20T22:42:31.801Z,17.80
2019-03-20T22:45:38.367Z,17.37
2019-03-20T22:48:47.910Z,22.47
2019-03-20T22:51:40.845Z,17.87
2019-03-20T22:54:51.276Z,14.23
2019-03-20T22:57:52.496Z,20.07
2019-03-20T23:03:16.351Z,15.07
2019-03-20T23:05:48.304Z,17.97
2019-03-20T23:08:20.345Z,15.67
2019-03-20T23:10:52.518Z,13.90
2019-03-20T23:13:24.554Z,15.47
2019-03-20T23:15:56.621Z,13.83
2019-03-20T23:18:28.691Z,15.80
2019-03-20T23:21:02.315Z,15.23
2019-03-20T23:23:35.589Z,16.13
2019-03-20T23:26:07.675Z,15.30
2019-03-20T23:28:39.951Z,17.07
2019-03-20T23:31:11.993Z,18.30
2019-03-20T23:33:44.198Z,14.33
2019-03-20T23:36:16.267Z,16.20
2019-03-20T23:38:54.375Z,17.53
2019-03-20T23:41:26.420Z,16.60
2019-03-20T23:43:58.580Z,15.63
2019-03-20T23:46:31.039Z,15.53
2019-03-20T23:49:12.725Z,15.20
2019-03-20T23:51:45.800Z,16.00
2019-03-20T23:54:20.776Z,15.37
2019-03-20T23:56:55.527Z,13.03
2019-03-20T23:59:27.596Z,10.73
